Terminal Aerodrome Forecast
Issued by NWS

Home | Current Version | Previous Version | Text Only | Print | Product List | Glossary On
Versions: 1 2 3 4 5 6 7 8 9 10 11 12 13
000
FTUS41 KCAR 012320
TAFHUL
TAF
KHUL 012320Z 0200/0224 19005KT P6SM OVC090
     FM020400 19007KT 3SM -SN OVC025
     FM020600 20004KT 1 1/2SM -SN OVC007
     FM021200 00000KT 4SM -SN BR OVC010
     FM021500 28012KT P6SM VCSH OVC020=

USA.gov is the U.S. government's official web portal to all federal, state and local government web resources and services.